createdAt,value
2022-11-07T00:00:12.857Z,7.22
2022-11-07T00:01:18.061Z,7.23
2022-11-07T00:02:23.557Z,7.23
2022-11-07T00:03:25.657Z,7.25
2022-11-07T00:04:31.318Z,7.28
2022-11-07T00:05:35.964Z,7.27
2022-11-07T00:06:38.214Z,7.30
2022-11-07T00:07:42.943Z,7.31
2022-11-07T00:08:45.771Z,7.33
2022-11-07T00:09:50.440Z,7.34
2022-11-07T00:10:57.101Z,7.37
2022-11-07T00:12:01.988Z,7.39
2022-11-07T00:13:04.246Z,7.44
2022-11-07T00:14:09.104Z,7.39
2022-11-07T00:15:11.623Z,7.38
2022-11-07T00:16:16.934Z,7.42
2022-11-07T00:17:21.642Z,7.47
2022-11-07T00:18:23.724Z,7.46
2022-11-07T00:19:28.380Z,7.47
2022-11-07T00:20:30.423Z,7.44
2022-11-07T00:21:35.311Z,7.46
2022-11-07T00:22:37.387Z,7.44
2022-11-07T00:23:43.626Z,7.50
2022-11-07T00:24:45.636Z,7.50
2022-11-07T00:25:50.317Z,7.56
2022-11-07T00:26:55.062Z,7.60
2022-11-07T00:27:59.812Z,7.59
2022-11-07T00:29:02.368Z,7.59
2022-11-07T00:30:08.164Z,7.59
2022-11-07T00:31:12.553Z,7.60
2022-11-07T00:32:17.213Z,7.60
2022-11-07T00:33:19.230Z,7.67
2022-11-07T00:34:24.018Z,7.69
2022-11-07T00:35:26.161Z,7.63
2022-11-07T00:36:31.882Z,7.67
2022-11-07T00:37:36.553Z,7.69
2022-11-07T00:38:38.734Z,7.67
2022-11-07T00:39:43.345Z,7.67
2022-11-07T00:40:54.556Z,7.69
2022-11-07T00:42:01.836Z,7.68
2022-11-07T00:43:03.987Z,7.71
2022-11-07T00:44:09.098Z,7.67
2022-11-07T00:45:11.900Z,7.61
2022-11-07T00:46:19.554Z,7.58
2022-11-07T00:47:21.651Z,7.62
2022-11-07T00:48:26.562Z,7.60
2022-11-07T00:49:28.576Z,7.65
2022-11-07T00:50:33.198Z,7.63
2022-11-07T00:51:38.012Z,7.69
2022-11-07T00:52:40.023Z,7.68
2022-11-07T00:53:45.967Z,7.67
2022-11-07T00:54:50.652Z,7.69
2022-11-07T00:55:52.741Z,7.67
2022-11-07T00:56:57.389Z,7.69
2022-11-07T00:58:02.040Z,7.75
2022-11-07T00:59:06.683Z,7.72
2022-11-07T01:00:10.594Z,7.78
2022-11-07T01:01:17.910Z,7.77
2022-11-07T01:02:22.783Z,7.76
2022-11-07T01:03:39.905Z,7.77
2022-11-07T01:04:57.122Z,7.74
2022-11-07T01:06:00.861Z,7.71
2022-11-07T01:07:07.053Z,7.72
2022-11-07T01:08:09.054Z,7.69
2022-11-07T01:09:15.534Z,7.71
2022-11-07T01:10:17.815Z,7.70
2022-11-07T01:11:22.789Z,7.74
2022-11-07T01:12:27.501Z,7.75
2022-11-07T01:13:33.249Z,7.77
2022-11-07T01:14:39.123Z,7.73
2022-11-07T01:15:41.894Z,7.75
2022-11-07T01:16:47.611Z,7.73
2022-11-07T01:17:50.027Z,7.78
2022-11-07T01:18:54.765Z,7.77
2022-11-07T01:19:56.781Z,7.71
2022-11-07T01:21:01.424Z,7.70
2022-11-07T01:22:06.120Z,7.72
2022-11-07T01:23:09.143Z,7.71
2022-11-07T01:24:15.349Z,7.68
2022-11-07T01:25:17.450Z,7.70
2022-11-07T01:26:22.255Z,7.72
2022-11-07T01:27:24.474Z,7.75
2022-11-07T01:28:29.079Z,7.76
2022-11-07T01:29:36.382Z,7.79
2022-11-07T01:30:38.742Z,7.80
2022-11-07T01:31:43.966Z,7.74
2022-11-07T01:32:46.181Z,7.74
2022-11-07T01:33:50.832Z,7.72
2022-11-07T01:34:55.443Z,7.76
2022-11-07T01:36:05.739Z,7.75
2022-11-07T01:37:10.749Z,7.76
2022-11-07T01:38:12.951Z,7.72
2022-11-07T01:39:17.604Z,7.75
2022-11-07T01:40:19.867Z,7.79
2022-11-07T01:41:27.090Z,7.78
2022-11-07T01:42:31.870Z,7.73
2022-11-07T01:43:45.662Z,7.69
2022-11-07T01:44:57.248Z,7.64
2022-11-07T01:45:59.022Z,7.67
2022-11-07T01:47:04.280Z,7.65
2022-11-07T01:48:09.017Z,7.66
2022-11-07T01:49:18.781Z,7.55
2022-11-07T01:50:24.586Z,7.46
2022-11-07T01:51:44.276Z,7.35
2022-11-07T01:52:52.144Z,7.24
2022-11-07T01:54:27.567Z,7.16
2022-11-07T01:55:36.620Z,7.14
2022-11-07T01:56:44.286Z,7.08
2022-11-07T01:57:49.863Z,7.07
2022-11-07T01:58:55.884Z,7.03
2022-11-07T02:00:04.377Z,6.98
2022-11-07T02:01:09.055Z,6.89
2022-11-07T02:02:14.051Z,6.87
2022-11-07T02:03:22.103Z,6.86
2022-11-07T02:04:30.637Z,6.97
2022-11-07T02:05:40.590Z,6.91
2022-11-07T02:06:45.963Z,6.83
2022-11-07T02:07:50.661Z,6.73
2022-11-07T02:08:53.379Z,6.70
2022-11-07T02:09:58.661Z,6.70
2022-11-07T02:11:02.804Z,6.64
2022-11-07T02:12:08.247Z,6.64
2022-11-07T02:13:15.478Z,6.60
2022-11-07T02:14:21.351Z,6.53
2022-11-07T02:15:26.435Z,6.64
2022-11-07T02:16:32.790Z,6.59
2022-11-07T02:17:35.540Z,6.52
2022-11-07T02:18:43.809Z,6.46
2022-11-07T02:19:51.528Z,6.56
2022-11-07T02:20:57.440Z,6.60
2022-11-07T02:22:06.393Z,6.72
2022-11-07T02:23:13.506Z,6.71
2022-11-07T02:24:27.968Z,6.67
2022-11-07T02:25:33.211Z,6.68
2022-11-07T02:26:37.249Z,6.73
2022-11-07T02:27:43.779Z,6.79
2022-11-07T02:28:48.296Z,6.95
2022-11-07T02:29:57.401Z,7.01
2022-11-07T02:30:59.466Z,7.00
2022-11-07T02:32:05.805Z,7.02
2022-11-07T02:33:18.209Z,7.01
2022-11-07T02:34:22.858Z,7.05
2022-11-07T02:35:38.194Z,7.04
2022-11-07T02:36:43.553Z,7.04
2022-11-07T02:37:45.617Z,7.03
2022-11-07T02:38:57.516Z,7.02
2022-11-07T02:40:05.643Z,7.04
2022-11-07T02:41:14.664Z,7.07
2022-11-07T02:42:17.551Z,7.10
2022-11-07T02:43:25.280Z,7.07
2022-11-07T02:44:28.767Z,7.07
2022-11-07T02:45:40.148Z,7.06
2022-11-07T02:46:42.525Z,7.05
2022-11-07T02:47:47.559Z,7.04
2022-11-07T02:48:52.464Z,7.02
2022-11-07T02:49:57.116Z,6.98
2022-11-07T02:50:59.435Z,6.92
2022-11-07T02:52:04.092Z,6.90
2022-11-07T02:53:06.155Z,6.90
2022-11-07T02:54:10.855Z,6.86
2022-11-07T02:55:15.724Z,6.81
2022-11-07T02:56:21.171Z,6.83
2022-11-07T02:57:23.244Z,6.80
2022-11-07T02:58:28.044Z,6.85
2022-11-07T02:59:32.734Z,6.82
2022-11-07T03:00:34.786Z,6.88
2022-11-07T03:01:40.069Z,6.91
2022-11-07T03:02:47.240Z,6.91
2022-11-07T03:03:53.846Z,6.99
2022-11-07T03:04:56.079Z,7.03
2022-11-07T03:06:00.796Z,7.03
2022-11-07T03:07:02.897Z,7.08
2022-11-07T03:08:08.304Z,7.20
2022-11-07T03:09:10.325Z,7.21
2022-11-07T03:10:18.690Z,7.23
2022-11-07T03:11:20.950Z,7.31
2022-11-07T03:12:25.645Z,7.43
2022-11-07T03:13:27.792Z,7.47
2022-11-07T03:14:32.477Z,7.45
2022-11-07T03:15:34.538Z,7.47
2022-11-07T03:16:40.390Z,7.51
2022-11-07T03:17:42.940Z,7.55
2022-11-07T03:18:47.880Z,7.56
2022-11-07T03:19:49.916Z,7.62
2022-11-07T03:20:54.586Z,7.60
2022-11-07T03:21:56.681Z,7.61
2022-11-07T03:23:01.374Z,7.67
2022-11-07T03:24:06.279Z,7.67
2022-11-07T03:25:08.750Z,7.67
2022-11-07T03:26:16.042Z,7.72
2022-11-07T03:27:18.291Z,7.75
2022-11-07T03:28:23.183Z,7.78
2022-11-07T03:29:25.376Z,7.78
2022-11-07T03:30:30.085Z,7.79
2022-11-07T03:31:32.165Z,7.80
2022-11-07T03:32:36.875Z,7.80
2022-11-07T03:33:38.920Z,7.82
2022-11-07T03:34:43.691Z,7.83
2022-11-07T03:35:48.739Z,7.82
2022-11-07T03:36:50.763Z,7.80
2022-11-07T03:37:55.564Z,7.83
2022-11-07T03:38:57.867Z,7.88
2022-11-07T03:40:02.926Z,7.85
2022-11-07T03:41:08.004Z,7.83
2022-11-07T03:42:12.709Z,7.86
2022-11-07T03:43:17.647Z,7.87
2022-11-07T03:44:19.850Z,7.94
2022-11-07T03:45:24.622Z,7.91
2022-11-07T03:46:26.622Z,7.89
2022-11-07T03:47:31.311Z,7.91
2022-11-07T03:48:35.945Z,7.96
2022-11-07T03:49:37.988Z,8.00
2022-11-07T03:50:42.612Z,8.02
2022-11-07T03:51:44.679Z,8.01
2022-11-07T03:52:50.237Z,8.01
2022-11-07T03:53:52.406Z,8.04
2022-11-07T03:54:57.948Z,8.13
2022-11-07T03:56:00.099Z,8.10
2022-11-07T03:57:04.899Z,8.09
2022-11-07T03:58:09.650Z,8.15
2022-11-07T03:59:14.295Z,8.15
2022-11-07T04:00:17.779Z,8.16
2022-11-07T04:01:22.558Z,8.13
2022-11-07T04:02:24.826Z,8.16
2022-11-07T04:03:29.538Z,8.19
2022-11-07T04:04:31.602Z,8.14
2022-11-07T04:05:36.536Z,8.12
2022-11-07T04:06:38.727Z,8.14
2022-11-07T04:07:43.509Z,8.17
2022-11-07T04:08:45.810Z,8.18
2022-11-07T04:09:50.485Z,8.20
2022-11-07T04:10:52.767Z,8.16
2022-11-07T04:12:09.850Z,8.14
2022-11-07T04:13:29.661Z,8.13
2022-11-07T04:14:46.701Z,8.14
2022-11-07T04:16:05.659Z,8.17
2022-11-07T04:17:21.891Z,8.13
2022-11-07T04:18:26.760Z,8.17
2022-11-07T04:19:28.843Z,8.13
2022-11-07T04:20:33.511Z,8.16
2022-11-07T04:21:35.726Z,8.14
2022-11-07T04:22:40.539Z,8.17
2022-11-07T04:23:42.631Z,8.17
2022-11-07T04:24:48.254Z,8.18
2022-11-07T04:26:05.390Z,8.17
2022-11-07T04:27:23.813Z,8.19
2022-11-07T04:28:31.054Z,8.19
2022-11-07T04:29:33.158Z,8.27
2022-11-07T04:30:37.779Z,8.32
2022-11-07T04:31:39.794Z,8.31
2022-11-07T04:32:44.599Z,8.32
2022-11-07T04:33:46.595Z,8.36
2022-11-07T04:34:51.239Z,8.35
2022-11-07T04:35:53.375Z,8.29
2022-11-07T04:36:58.009Z,8.27
2022-11-07T04:38:01.033Z,8.32
2022-11-07T04:39:05.689Z,8.28
2022-11-07T04:40:09.317Z,8.28
2022-11-07T04:41:22.303Z,8.26
2022-11-07T04:42:24.429Z,8.26
2022-11-07T04:43:31.637Z,8.33
2022-11-07T04:44:33.738Z,8.32
2022-11-07T04:45:39.425Z,8.30
2022-11-07T04:46:41.485Z,8.33
2022-11-07T04:47:46.215Z,8.32
2022-11-07T04:48:48.277Z,8.34
2022-11-07T04:49:52.876Z,8.36
2022-11-07T04:50:57.724Z,8.42
2022-11-07T04:51:59.969Z,8.42
2022-11-07T04:53:04.787Z,8.43
2022-11-07T04:54:08.965Z,8.46
2022-11-07T04:55:20.926Z,8.47
2022-11-07T04:56:22.957Z,8.45
2022-11-07T04:57:27.675Z,8.46
2022-11-07T04:58:34.938Z,8.49
2022-11-07T04:59:36.982Z,8.50
2022-11-07T05:00:41.583Z,8.51
2022-11-07T05:01:43.801Z,8.53
2022-11-07T05:02:48.533Z,8.51
2022-11-07T05:03:50.596Z,8.52
2022-11-07T05:04:55.711Z,8.49
2022-11-07T05:05:58.002Z,8.46
2022-11-07T05:07:02.700Z,8.49
2022-11-07T05:08:05.277Z,8.50
2022-11-07T05:09:09.922Z,8.53
2022-11-07T05:10:18.264Z,8.50
2022-11-07T05:11:23.064Z,8.50
2022-11-07T05:12:27.785Z,8.47
2022-11-07T05:13:32.424Z,8.52
2022-11-07T05:14:37.052Z,8.54
2022-11-07T05:15:39.163Z,8.58
2022-11-07T05:16:46.010Z,8.60
2022-11-07T05:17:48.653Z,8.57
2022-11-07T05:18:53.305Z,8.55
2022-11-07T05:19:55.488Z,8.55
2022-11-07T05:21:00.290Z,8.60
2022-11-07T05:22:17.371Z,8.65
2022-11-07T05:23:20.248Z,8.56
2022-11-07T05:24:25.191Z,8.51
2022-11-07T05:25:27.262Z,8.49
2022-11-07T05:26:31.850Z,8.53
2022-11-07T05:27:33.880Z,8.48
2022-11-07T05:28:41.163Z,8.49
2022-11-07T05:29:43.166Z,8.47
2022-11-07T05:30:48.704Z,8.43
2022-11-07T05:31:50.773Z,8.38
2022-11-07T05:32:55.425Z,8.38
2022-11-07T05:34:00.409Z,8.39
2022-11-07T05:35:02.477Z,8.34
2022-11-07T05:36:18.036Z,8.36
2022-11-07T05:37:20.124Z,8.33
2022-11-07T05:38:24.956Z,8.28
2022-11-07T05:39:26.971Z,8.22
2022-11-07T05:40:31.875Z,8.19
2022-11-07T05:41:36.004Z,8.22
2022-11-07T05:42:40.632Z,8.29
2022-11-07T05:43:48.324Z,8.23
2022-11-07T05:44:50.386Z,8.29
2022-11-07T05:45:55.044Z,8.24
2022-11-07T05:46:57.861Z,8.20
2022-11-07T05:48:03.593Z,8.17
2022-11-07T05:49:08.218Z,8.17
2022-11-07T05:50:10.467Z,8.17
2022-11-07T05:51:15.083Z,8.24
2022-11-07T05:52:17.147Z,8.29
2022-11-07T05:53:21.951Z,8.25
2022-11-07T05:54:24.909Z,8.24
2022-11-07T05:55:29.640Z,8.25
2022-11-07T05:56:34.389Z,8.26
2022-11-07T05:57:36.487Z,8.28
2022-11-07T05:58:41.211Z,8.25
2022-11-07T05:59:45.992Z,8.27
2022-11-07T06:00:51.233Z,8.22
2022-11-07T06:01:53.676Z,8.27
2022-11-07T06:03:00.599Z,8.24
2022-11-07T06:04:03.943Z,8.27
2022-11-07T06:05:09.606Z,8.22
2022-11-07T06:06:11.735Z,8.25
2022-11-07T06:07:16.456Z,8.26
2022-11-07T06:08:21.068Z,8.28
2022-11-07T06:09:23.116Z,8.34
2022-11-07T06:10:28.433Z,8.34
2022-11-07T06:11:32.025Z,8.35
2022-11-07T06:12:36.710Z,8.41
2022-11-07T06:13:41.612Z,8.43
2022-11-07T06:14:46.247Z,8.53
2022-11-07T06:15:51.304Z,8.47
2022-11-07T06:16:53.380Z,8.46
2022-11-07T06:17:58.395Z,8.46
2022-11-07T06:19:03.066Z,8.48
2022-11-07T06:20:06.296Z,8.44
2022-11-07T06:21:11.053Z,8.48
2022-11-07T06:22:13.128Z,8.49
2022-11-07T06:23:18.422Z,8.45
2022-11-07T06:24:20.750Z,8.44
2022-11-07T06:25:26.071Z,8.44
2022-11-07T06:26:28.176Z,8.42
2022-11-07T06:27:33.859Z,8.42
2022-11-07T06:28:36.514Z,8.39
2022-11-07T06:29:41.225Z,8.39
2022-11-07T06:30:51.361Z,8.38
2022-11-07T06:31:53.592Z,8.37
2022-11-07T06:32:58.791Z,8.33
2022-11-07T06:34:01.073Z,8.32
2022-11-07T06:35:06.011Z,8.32
2022-11-07T06:36:10.325Z,8.34
2022-11-07T06:37:15.049Z,8.37
2022-11-07T06:38:17.129Z,8.37
2022-11-07T06:39:21.788Z,8.38
2022-11-07T06:40:23.875Z,8.45
2022-11-07T06:41:28.669Z,8.42
2022-11-07T06:42:31.004Z,8.47
2022-11-07T06:43:36.435Z,8.48
2022-11-07T06:44:38.447Z,8.44
2022-11-07T06:45:43.831Z,8.45
2022-11-07T06:46:48.621Z,8.46
2022-11-07T06:47:53.305Z,8.49
2022-11-07T06:48:55.577Z,8.54
2022-11-07T06:50:00.198Z,8.54
2022-11-07T06:51:04.284Z,8.45
2022-11-07T06:52:09.011Z,8.48
2022-11-07T06:53:13.553Z,8.43
2022-11-07T06:54:18.867Z,8.41
2022-11-07T06:55:22.114Z,8.43
2022-11-07T06:56:27.418Z,8.44
2022-11-07T06:57:30.471Z,8.45
2022-11-07T06:58:35.138Z,8.45
2022-11-07T06:59:39.781Z,8.45
2022-11-07T07:00:41.921Z,8.49
2022-11-07T07:01:46.646Z,8.51
2022-11-07T07:02:58.526Z,8.51
2022-11-07T07:04:05.690Z,8.55
2022-11-07T07:05:08.813Z,8.62
2022-11-07T07:06:16.982Z,8.61
2022-11-07T07:07:19.070Z,8.64
2022-11-07T07:08:23.662Z,8.65
2022-11-07T07:09:25.919Z,8.65
2022-11-07T07:10:30.827Z,8.63
2022-11-07T07:11:39.335Z,8.72
2022-11-07T07:12:41.723Z,8.69
2022-11-07T07:13:46.348Z,8.72
2022-11-07T07:14:48.369Z,8.79
2022-11-07T07:15:56.636Z,8.86
2022-11-07T07:16:59.425Z,8.90
2022-11-07T07:18:07.735Z,8.90
2022-11-07T07:19:12.429Z,8.95
2022-11-07T07:20:17.410Z,8.95
2022-11-07T07:21:19.802Z,9.00
2022-11-07T07:22:24.558Z,8.98
2022-11-07T07:23:26.629Z,9.11
2022-11-07T07:24:31.479Z,9.09
2022-11-07T07:25:36.309Z,9.21
2022-11-07T07:26:38.382Z,9.38
2022-11-07T07:27:43.127Z,9.50
2022-11-07T07:28:45.136Z,9.53
2022-11-07T07:29:50.622Z,9.61
2022-11-07T07:30:55.374Z,9.69
2022-11-07T07:32:00.038Z,9.87
2022-11-07T07:33:04.904Z,10.12
2022-11-07T07:34:09.543Z,10.16
2022-11-07T07:35:11.598Z,10.44
2022-11-07T07:36:20.701Z,10.29
2022-11-07T07:37:22.925Z,10.40
2022-11-07T07:38:27.568Z,10.57
2022-11-07T07:39:30.865Z,10.90
2022-11-07T07:40:35.479Z,10.59
2022-11-07T07:41:40.170Z,10.66
2022-11-07T07:42:45.894Z,10.78
2022-11-07T07:43:50.559Z,10.92
2022-11-07T07:44:52.808Z,11.16
2022-11-07T07:46:00.893Z,11.39
2022-11-07T07:47:07.054Z,11.57
2022-11-07T07:48:17.241Z,11.71
2022-11-07T07:49:21.924Z,11.61
2022-11-07T07:50:23.959Z,11.41
2022-11-07T07:51:28.718Z,11.52
2022-11-07T07:52:33.457Z,11.56
2022-11-07T07:53:38.176Z,11.26
2022-11-07T07:54:40.285Z,10.99
2022-11-07T07:55:45.043Z,11.00
2022-11-07T07:56:49.690Z,11.12
2022-11-07T07:57:51.771Z,11.24
2022-11-07T07:58:56.544Z,11.10
2022-11-07T08:00:01.249Z,10.83
2022-11-07T08:01:10.618Z,10.82
2022-11-07T08:02:15.914Z,10.76
2022-11-07T08:03:21.171Z,10.77
2022-11-07T08:04:25.850Z,10.91
2022-11-07T08:05:28.006Z,10.91
2022-11-07T08:06:35.227Z,10.99
2022-11-07T08:07:47.046Z,10.85
2022-11-07T08:08:51.678Z,10.78
2022-11-07T08:09:53.757Z,10.79
2022-11-07T08:11:04.255Z,11.14
2022-11-07T08:12:08.798Z,11.41
2022-11-07T08:13:13.694Z,11.29
2022-11-07T08:14:16.074Z,11.39
2022-11-07T08:15:22.234Z,11.63
2022-11-07T08:16:27.078Z,11.29
2022-11-07T08:17:29.159Z,11.30
2022-11-07T08:18:39.948Z,11.40
2022-11-07T08:19:44.596Z,11.71
2022-11-07T08:20:49.356Z,11.78
2022-11-07T08:21:54.056Z,11.69
2022-11-07T08:23:04.378Z,11.49
2022-11-07T08:24:10.270Z,11.72
2022-11-07T08:25:13.291Z,11.83
2022-11-07T08:26:17.912Z,11.98
2022-11-07T08:27:20.013Z,12.01
2022-11-07T08:28:26.833Z,12.11
2022-11-07T08:29:31.564Z,11.82
2022-11-07T08:30:33.687Z,11.65
2022-11-07T08:31:38.451Z,11.76
2022-11-07T08:32:40.541Z,11.81
2022-11-07T08:33:48.061Z,11.81
2022-11-07T08:34:50.486Z,12.01
2022-11-07T08:35:56.920Z,11.98
2022-11-07T08:36:58.951Z,12.02
2022-11-07T08:38:03.683Z,12.24
2022-11-07T08:39:08.298Z,12.10
2022-11-07T08:40:11.754Z,11.97
2022-11-07T08:41:21.036Z,11.83
2022-11-07T08:42:26.962Z,12.07
2022-11-07T08:43:32.030Z,11.88
2022-11-07T08:44:36.648Z,11.74
2022-11-07T08:45:41.423Z,11.89
2022-11-07T08:46:43.510Z,12.23
2022-11-07T08:47:48.236Z,12.18
2022-11-07T08:48:55.454Z,12.18
2022-11-07T08:49:57.460Z,12.16
2022-11-07T08:51:03.081Z,11.78
2022-11-07T08:52:05.437Z,11.77
2022-11-07T08:53:10.630Z,11.50
2022-11-07T08:54:15.374Z,11.68
2022-11-07T08:55:17.608Z,11.61
2022-11-07T08:56:22.284Z,11.63
2022-11-07T08:57:24.366Z,11.60
2022-11-07T08:58:30.412Z,11.34
2022-11-07T08:59:35.212Z,11.16
2022-11-07T09:00:39.920Z,11.14
2022-11-07T09:02:14.452Z,11.30
2022-11-07T09:03:31.162Z,11.18
2022-11-07T09:04:35.847Z,11.18
2022-11-07T09:05:38.969Z,11.02
2022-11-07T09:06:43.653Z,10.83
2022-11-07T09:07:45.818Z,10.83
2022-11-07T09:08:50.518Z,10.93
2022-11-07T09:09:55.226Z,11.00
2022-11-07T09:11:04.530Z,10.99
2022-11-07T09:12:07.677Z,11.12
2022-11-07T09:13:14.946Z,11.06
2022-11-07T09:14:17.321Z,11.28
2022-11-07T09:15:23.070Z,11.25
2022-11-07T09:16:27.795Z,11.15
2022-11-07T09:17:29.850Z,11.35
2022-11-07T09:18:35.047Z,11.22
2022-11-07T09:19:39.695Z,11.27
2022-11-07T09:20:44.437Z,11.46
2022-11-07T09:21:49.322Z,11.26
2022-11-07T09:22:59.138Z,11.21
2022-11-07T09:24:03.844Z,11.14
2022-11-07T09:25:06.879Z,11.25
2022-11-07T09:26:11.910Z,11.56
2022-11-07T09:27:13.942Z,11.42
2022-11-07T09:28:18.786Z,11.46
2022-11-07T09:29:23.771Z,11.33
2022-11-07T09:30:25.880Z,11.36
2022-11-07T09:31:30.601Z,11.30
2022-11-07T09:32:44.894Z,11.25
2022-11-07T09:33:50.350Z,11.29
2022-11-07T09:34:59.330Z,11.25
2022-11-07T09:36:07.231Z,11.30
2022-11-07T09:37:09.313Z,11.42
2022-11-07T09:38:14.789Z,11.27
2022-11-07T09:39:19.507Z,11.26
2022-11-07T09:40:40.552Z,11.22
2022-11-07T09:41:54.780Z,11.26
2022-11-07T09:43:07.034Z,11.44
2022-11-07T09:44:29.726Z,11.23
2022-11-07T09:45:43.372Z,11.47
2022-11-07T09:46:55.886Z,11.45
2022-11-07T09:48:06.317Z,11.24
2022-11-07T09:49:15.551Z,11.42
2022-11-07T09:50:30.344Z,11.49
2022-11-07T09:51:37.430Z,11.65
2022-11-07T09:52:50.713Z,11.93
2022-11-07T09:53:58.599Z,12.22
2022-11-07T09:55:07.604Z,12.25
2022-11-07T09:56:13.182Z,12.41
2022-11-07T09:57:19.799Z,12.71
2022-11-07T09:58:29.896Z,12.85
2022-11-07T09:59:39.101Z,12.46
2022-11-07T10:00:44.414Z,12.54
2022-11-07T10:01:46.652Z,12.62
2022-11-07T10:02:53.016Z,12.65
2022-11-07T10:04:23.528Z,12.70
2022-11-07T10:05:32.929Z,13.03
2022-11-07T10:06:45.770Z,12.62
2022-11-07T10:07:59.839Z,12.30
2022-11-07T10:09:16.432Z,12.43
2022-11-07T10:10:27.951Z,12.49
2022-11-07T10:11:38.828Z,12.90
2022-11-07T10:12:57.649Z,13.24
2022-11-07T10:14:19.546Z,12.72
2022-11-07T10:15:30.481Z,13.08
2022-11-07T10:16:43.678Z,13.00
2022-11-07T10:17:56.533Z,13.34
2022-11-07T10:19:12.278Z,13.34
2022-11-07T10:20:30.153Z,13.18
2022-11-07T10:21:48.446Z,13.10
2022-11-07T10:23:12.946Z,13.10
2022-11-07T10:24:34.344Z,13.30
2022-11-07T10:25:49.448Z,13.50
2022-11-07T10:26:51.615Z,13.77
2022-11-07T10:28:08.029Z,13.86
2022-11-07T10:29:17.163Z,13.91
2022-11-07T10:30:21.242Z,13.79
2022-11-07T16:36:24.758Z,8.82
2022-11-07T16:37:29.946Z,8.77
2022-11-07T16:38:35.456Z,8.71
2022-11-07T16:39:42.655Z,8.65
2022-11-07T16:40:47.993Z,8.57
2022-11-07T16:41:53.546Z,8.52
2022-11-07T16:43:02.719Z,8.51
2022-11-07T16:44:10.961Z,8.44
2022-11-07T16:45:29.793Z,8.36
2022-11-07T16:46:47.646Z,8.30
2022-11-07T16:47:56.201Z,8.21
2022-11-07T16:49:06.215Z,8.16
2022-11-07T16:50:12.974Z,8.10
2022-11-07T16:51:21.936Z,8.02
2022-11-07T16:52:28.229Z,7.95
2022-11-07T16:53:30.313Z,7.88
2022-11-07T16:54:34.989Z,7.82
2022-11-07T16:55:37.241Z,7.75
2022-11-07T16:56:42.986Z,7.70
2022-11-07T16:57:48.878Z,7.60
2022-11-07T16:58:51.565Z,7.55
2022-11-07T16:59:56.250Z,7.49
2022-11-07T17:01:00.094Z,7.43
2022-11-07T17:02:09.018Z,7.35
2022-11-07T17:03:16.813Z,7.29
2022-11-07T17:04:21.590Z,7.24
2022-11-07T17:05:23.651Z,7.19
2022-11-07T17:06:33.745Z,7.16
2022-11-07T17:07:35.822Z,7.11
2022-11-07T17:08:42.628Z,7.08
2022-11-07T17:09:47.286Z,7.05
2022-11-07T17:10:52.276Z,7.02
2022-11-07T17:11:56.901Z,6.98
2022-11-07T17:13:01.588Z,7.00
2022-11-07T17:14:04.352Z,6.98
2022-11-07T17:15:10.534Z,6.91
2022-11-07T17:16:16.623Z,6.87
2022-11-07T17:17:21.789Z,6.86
2022-11-07T17:18:25.655Z,6.82
2022-11-07T17:19:30.339Z,6.79
2022-11-07T17:20:50.517Z,6.76
2022-11-07T17:21:58.778Z,6.73
2022-11-07T17:23:00.781Z,6.70
2022-11-07T17:24:07.450Z,6.69
2022-11-07T17:25:09.976Z,6.68
2022-11-07T17:26:15.866Z,6.70
2022-11-07T17:27:24.161Z,6.67
2022-11-07T17:28:26.234Z,6.77
2022-11-07T17:29:30.929Z,6.77
2022-11-07T17:30:33.703Z,6.80
2022-11-07T17:31:38.530Z,6.79
2022-11-07T17:32:40.612Z,6.80
2022-11-07T17:33:45.460Z,6.79
2022-11-07T17:35:10.659Z,6.85
2022-11-07T17:36:26.007Z,6.92
2022-11-07T17:37:33.264Z,6.94
2022-11-07T17:38:37.975Z,6.95
2022-11-07T17:39:40.060Z,6.94
2022-11-07T17:40:44.770Z,6.99
2022-11-07T17:41:50.939Z,7.13
2022-11-07T17:42:52.990Z,7.14
2022-11-07T17:43:58.951Z,7.21
2022-11-07T17:45:03.606Z,7.32
2022-11-07T17:46:09.192Z,7.42
2022-11-07T17:47:30.459Z,7.43
2022-11-07T17:48:32.546Z,7.38
2022-11-07T17:49:37.179Z,7.46
2022-11-07T17:50:41.848Z,7.47
2022-11-07T17:51:46.876Z,7.55
2022-11-07T17:52:54.728Z,7.61
2022-11-07T17:53:57.827Z,7.61
2022-11-07T17:55:02.568Z,7.57
2022-11-07T17:56:08.238Z,7.59
2022-11-07T17:57:10.691Z,7.65
2022-11-07T17:58:15.507Z,7.59
2022-11-07T17:59:22.816Z,7.53
2022-11-07T18:00:29.417Z,7.46
2022-11-07T18:01:34.034Z,7.40
2022-11-07T18:02:38.990Z,7.33
2022-11-07T18:03:43.689Z,7.25
2022-11-07T18:04:49.097Z,7.20
2022-11-07T18:05:53.743Z,7.15
2022-11-07T18:06:58.550Z,7.12
2022-11-07T18:08:07.285Z,7.07
2022-11-07T18:09:18.224Z,7.04
2022-11-07T18:10:22.997Z,7.00
2022-11-07T18:11:27.713Z,6.98
2022-11-07T18:12:32.368Z,6.93
2022-11-07T18:13:37.582Z,6.95
2022-11-07T18:14:45.408Z,6.90
2022-11-07T18:15:50.189Z,6.87
2022-11-07T18:16:52.520Z,6.85
2022-11-07T18:17:57.295Z,6.84
2022-11-07T18:19:01.572Z,6.83
2022-11-07T18:20:07.419Z,6.84
2022-11-07T18:21:10.348Z,6.81
2022-11-07T18:22:15.367Z,6.79
2022-11-07T18:23:20.083Z,6.77
2022-11-07T18:24:25.064Z,6.75
2022-11-07T18:25:31.193Z,6.72
2022-11-07T18:26:34.926Z,6.67
2022-11-07T18:27:40.076Z,6.66
2022-11-07T18:28:42.905Z,6.64
2022-11-07T18:29:47.766Z,6.58
2022-11-07T18:30:50.012Z,6.54
2022-11-07T18:31:57.763Z,6.49
2022-11-07T18:33:00.058Z,6.44
2022-11-07T18:34:07.057Z,6.43
2022-11-07T18:35:10.003Z,6.42
2022-11-07T18:36:17.234Z,6.41
2022-11-07T18:37:22.203Z,6.40
2022-11-07T18:38:29.948Z,6.47
2022-11-07T18:39:33.527Z,6.55
2022-11-07T18:40:38.440Z,6.70
2022-11-07T18:41:40.664Z,6.75
2022-11-07T18:42:47.228Z,6.71
2022-11-07T18:43:51.001Z,6.68
2022-11-07T18:44:55.951Z,6.70
2022-11-07T18:45:58.972Z,6.65
2022-11-07T18:47:03.751Z,6.62
2022-11-07T18:48:08.873Z,6.58
2022-11-07T18:49:14.470Z,6.54
2022-11-07T18:50:19.313Z,6.49
2022-11-07T18:51:23.623Z,6.58
2022-11-07T18:52:30.879Z,6.58
2022-11-07T18:53:38.254Z,6.58
2022-11-07T18:54:43.200Z,6.56
2022-11-07T18:55:48.179Z,6.52
2022-11-07T18:56:50.453Z,6.57
2022-11-07T18:57:55.135Z,6.53
2022-11-07T18:59:00.045Z,6.59
2022-11-07T19:00:07.922Z,6.58
2022-11-07T19:01:18.948Z,6.57
2022-11-07T19:02:21.184Z,6.51
2022-11-07T19:03:26.022Z,6.60
2022-11-07T19:04:30.716Z,6.56
2022-11-07T19:05:36.089Z,6.52
2022-11-07T19:06:56.994Z,6.55
2022-11-07T19:08:02.104Z,6.53
2022-11-07T19:09:09.579Z,6.61
2022-11-07T19:10:12.095Z,6.58
2022-11-07T19:11:19.778Z,6.71
2022-11-07T19:12:24.543Z,6.74
2022-11-07T19:13:27.373Z,6.73
2022-11-07T19:14:33.275Z,6.75
2022-11-07T19:15:38.463Z,6.73
2022-11-07T19:16:43.275Z,6.69
2022-11-07T19:17:48.090Z,6.67
2022-11-07T19:18:51.335Z,6.66
2022-11-07T19:19:56.738Z,6.65
2022-11-07T19:20:59.318Z,6.64
2022-11-07T19:22:05.720Z,6.65
2022-11-07T19:23:07.888Z,6.66
2022-11-07T19:24:15.828Z,6.64
2022-11-07T19:25:19.086Z,6.67
2022-11-07T19:26:24.920Z,6.63
2022-11-07T19:27:29.813Z,6.68
2022-11-07T19:28:32.147Z,6.63
2022-11-07T19:29:37.186Z,6.60
2022-11-07T19:30:39.750Z,6.55
2022-11-07T19:31:44.543Z,6.48
2022-11-07T19:32:48.211Z,6.42
2022-11-07T19:33:52.999Z,6.35
2022-11-07T19:34:57.752Z,6.26
2022-11-07T19:36:01.709Z,6.21
2022-11-07T19:37:06.475Z,6.14
2022-11-07T19:38:11.760Z,6.08
2022-11-07T19:39:19.201Z,6.02
2022-11-07T19:40:21.676Z,5.96
2022-11-07T19:41:26.510Z,5.90
2022-11-07T19:42:29.000Z,5.84
2022-11-07T19:43:34.071Z,5.79
2022-11-07T19:44:43.010Z,5.75
2022-11-07T19:45:48.724Z,5.71
2022-11-07T19:46:53.696Z,5.65
2022-11-07T19:47:56.024Z,5.60
2022-11-07T19:49:00.980Z,5.55
2022-11-07T19:50:03.323Z,5.52
2022-11-07T19:51:09.479Z,5.49
2022-11-07T19:52:11.550Z,5.49
2022-11-07T19:53:16.878Z,5.48
2022-11-07T19:54:24.419Z,5.50
2022-11-07T19:55:26.583Z,5.51
2022-11-07T19:56:33.170Z,5.52
2022-11-07T19:57:35.465Z,5.54
2022-11-07T19:58:41.295Z,5.54
2022-11-07T19:59:46.063Z,5.53
2022-11-07T20:00:48.341Z,5.52
2022-11-07T20:02:10.980Z,5.50
2022-11-07T20:03:18.453Z,5.48
2022-11-07T20:04:23.477Z,5.44
2022-11-07T20:05:25.812Z,5.42
2022-11-07T20:06:33.097Z,5.38
2022-11-07T20:07:35.669Z,5.36
2022-11-07T20:08:40.751Z,5.35
2022-11-07T20:09:48.406Z,5.35
2022-11-07T20:10:50.603Z,5.31
2022-11-07T20:11:58.898Z,5.28
2022-11-07T20:13:01.178Z,5.26
2022-11-07T20:14:05.922Z,5.25
2022-11-07T20:15:10.023Z,5.23
2022-11-07T20:16:15.929Z,5.25
2022-11-07T20:17:20.922Z,5.22
2022-11-07T20:18:22.982Z,5.19
2022-11-07T20:19:29.552Z,5.19
2022-11-07T20:20:34.380Z,5.15
2022-11-07T20:21:39.172Z,5.13
2022-11-07T20:22:47.923Z,5.11
2022-11-07T20:23:53.900Z,5.10
2022-11-07T20:24:58.638Z,5.06
2022-11-07T20:26:03.697Z,5.02
2022-11-07T20:27:08.829Z,4.97
2022-11-07T20:28:14.113Z,4.96
2022-11-07T20:29:19.550Z,4.94
2022-11-07T20:30:21.717Z,4.92
2022-11-07T20:31:29.449Z,4.89
2022-11-07T20:32:31.577Z,4.87